sensor_id;sensor_type;location;lat;lon;timestamp;P1;durP1;ratioP1;P2;durP2;ratioP2
2049;SDS011;8478;49.208;8.806;2023-03-05T11:39:13;91.32;;;31.77;;
2049;SDS011;8478;49.208;8.806;2023-03-05T11:41:42;124.13;;;33.20;;
2049;SDS011;8478;49.208;8.806;2023-03-05T11:47:12;68.90;;;25.43;;
2049;SDS011;8478;49.208;8.806;2023-03-05T11:49:45;63.30;;;23.20;;
2049;SDS011;8478;49.208;8.806;2023-03-05T11:52:14;93.00;;;28.87;;
2049;SDS011;8478;49.208;8.806;2023-03-05T11:57:55;59.03;;;24.87;;
2049;SDS011;8478;49.208;8.806;2023-03-05T12:00:36;83.57;;;28.50;;
2049;SDS011;8478;49.208;8.806;2023-03-05T12:03:06;56.63;;;26.17;;
2049;SDS011;8478;49.208;8.806;2023-03-05T12:05:38;69.90;;;24.33;;
2049;SDS011;8478;49.208;8.806;2023-03-05T12:08:10;62.67;;;23.40;;
2049;SDS011;8478;49.208;8.806;2023-03-05T12:10:39;54.17;;;22.03;;
2049;SDS011;8478;49.208;8.806;2023-03-05T12:13:18;46.63;;;21.27;;
2049;SDS011;8478;49.208;8.806;2023-03-05T12:15:58;45.13;;;19.33;;
2049;SDS011;8478;49.208;8.806;2023-03-05T12:24:01;1251.27;;;244.10;;
2049;SDS011;8478;49.208;8.806;2023-03-05T12:29:38;771.60;;;151.07;;
2049;SDS011;8478;49.208;8.806;2023-03-05T12:32:05;683.90;;;124.43;;
2049;SDS011;8478;49.208;8.806;2023-03-05T12:47:40;395.00;;;75.93;;
2049;SDS011;8478;49.208;8.806;2023-03-05T12:52:54;314.63;;;62.10;;
2049;SDS011;8478;49.208;8.806;2023-03-05T12:55:22;286.47;;;57.50;;
2049;SDS011;8478;49.208;8.806;2023-03-05T12:57:51;314.60;;;58.60;;
2049;SDS011;8478;49.208;8.806;2023-03-05T13:00:39;299.50;;;58.43;;
2049;SDS011;8478;49.208;8.806;2023-03-05T13:03:28;248.80;;;51.13;;
2049;SDS011;8478;49.208;8.806;2023-03-05T13:05:57;205.23;;;44.17;;
2049;SDS011;8478;49.208;8.806;2023-03-05T13:10:59;130.20;;;31.60;;
2049;SDS011;8478;49.208;8.806;2023-03-05T13:13:30;133.73;;;32.33;;
2049;SDS011;8478;49.208;8.806;2023-03-05T13:15:59;273.97;;;53.80;;
2049;SDS011;8478;49.208;8.806;2023-03-05T13:18:26;175.73;;;41.83;;
2049;SDS011;8478;49.208;8.806;2023-03-05T13:21:06;118.37;;;33.03;;
2049;SDS011;8478;49.208;8.806;2023-03-05T13:23:37;113.50;;;27.10;;
2049;SDS011;8478;49.208;8.806;2023-03-05T13:26:22;84.47;;;25.73;;
2049;SDS011;8478;49.208;8.806;2023-03-05T13:29:13;92.63;;;25.37;;
2049;SDS011;8478;49.208;8.806;2023-03-05T13:31:44;68.63;;;20.47;;
2049;SDS011;8478;49.208;8.806;2023-03-05T13:34:25;28.37;;;11.73;;
2049;SDS011;8478;49.208;8.806;2023-03-05T13:37:16;46.47;;;16.43;;
2049;SDS011;8478;49.208;8.806;2023-03-05T13:39:47;35.73;;;14.87;;
2049;SDS011;8478;49.208;8.806;2023-03-05T13:42:28;24.67;;;11.23;;
2049;SDS011;8478;49.208;8.806;2023-03-05T13:47:31;27.53;;;11.90;;
2049;SDS011;8478;49.208;8.806;2023-03-05T13:50:01;25.00;;;10.70;;
2049;SDS011;8478;49.208;8.806;2023-03-05T13:52:33;21.80;;;10.47;;
2049;SDS011;8478;49.208;8.806;2023-03-05T13:55:01;26.60;;;11.63;;
2049;SDS011;8478;49.208;8.806;2023-03-05T13:57:39;23.53;;;11.73;;
2049;SDS011;8478;49.208;8.806;2023-03-05T14:00:35;16.13;;;11.27;;
2049;SDS011;8478;49.208;8.806;2023-03-05T14:03:10;18.53;;;10.17;;
2049;SDS011;8478;49.208;8.806;2023-03-05T14:05:44;17.60;;;11.03;;
2049;SDS011;8478;49.208;8.806;2023-03-05T14:08:18;21.63;;;10.80;;
2049;SDS011;8478;49.208;8.806;2023-03-05T14:10:49;15.73;;;9.40;;
2049;SDS011;8478;49.208;8.806;2023-03-05T14:13:17;15.23;;;9.67;;
2049;SDS011;8478;49.208;8.806;2023-03-05T14:16:04;14.73;;;9.60;;
2049;SDS011;8478;49.208;8.806;2023-03-05T14:18:32;12.57;;;9.23;;
2049;SDS011;8478;49.208;8.806;2023-03-05T14:23:43;9.97;;;8.13;;
2049;SDS011;8478;49.208;8.806;2023-03-05T14:26:16;13.50;;;9.03;;
2049;SDS011;8478;49.208;8.806;2023-03-05T14:31:48;9.07;;;7.97;;
2049;SDS011;8478;49.208;8.806;2023-03-05T14:34:23;8.20;;;6.83;;
2049;SDS011;8478;49.208;8.806;2023-03-05T14:36:59;14.03;;;7.40;;
2049;SDS011;8478;49.208;8.806;2023-03-05T14:42:11;9.83;;;8.00;;
2049;SDS011;8478;49.208;8.806;2023-03-05T14:44:58;8.33;;;7.53;;
2049;SDS011;8478;49.208;8.806;2023-03-05T14:47:25;9.80;;;7.63;;
2049;SDS011;8478;49.208;8.806;2023-03-05T14:49:52;9.13;;;7.57;;
2049;SDS011;8478;49.208;8.806;2023-03-05T14:52:18;8.27;;;7.03;;
2049;SDS011;8478;49.208;8.806;2023-03-05T14:54:46;7.43;;;6.53;;
2049;SDS011;8478;49.208;8.806;2023-03-05T14:57:14;8.10;;;6.90;;
2049;SDS011;8478;49.208;8.806;2023-03-05T14:59:47;8.13;;;7.33;;
2049;SDS011;8478;49.208;8.806;2023-03-05T15:02:17;7.47;;;6.77;;
2049;SDS011;8478;49.208;8.806;2023-03-05T15:04:45;8.20;;;6.50;;
2049;SDS011;8478;49.208;8.806;2023-03-05T15:07:45;6.93;;;6.23;;
2049;SDS011;8478;49.208;8.806;2023-03-05T15:10:04;8.13;;;7.20;;
2049;SDS011;8478;49.208;8.806;2023-03-05T15:12:31;7.13;;;6.53;;
2049;SDS011;8478;49.208;8.806;2023-03-05T15:14:57;7.20;;;6.50;;
2049;SDS011;8478;49.208;8.806;2023-03-05T15:17:33;7.20;;;6.60;;
2049;SDS011;8478;49.208;8.806;2023-03-05T15:20:02;7.43;;;6.70;;
2049;SDS011;8478;49.208;8.806;2023-03-05T15:22:34;7.20;;;6.43;;
2049;SDS011;8478;49.208;8.806;2023-03-05T15:25:00;7.50;;;6.80;;
2049;SDS011;8478;49.208;8.806;2023-03-05T15:27:27;7.93;;;6.50;;
2049;SDS011;8478;49.208;8.806;2023-03-05T15:29:52;7.07;;;6.47;;
2049;SDS011;8478;49.208;8.806;2023-03-05T15:32:18;7.30;;;6.60;;
2049;SDS011;8478;49.208;8.806;2023-03-05T15:34:44;7.80;;;6.70;;
2049;SDS011;8478;49.208;8.806;2023-03-05T15:37:09;8.53;;;7.70;;
2049;SDS011;8478;49.208;8.806;2023-03-05T15:39:35;9.07;;;8.23;;
2049;SDS011;8478;49.208;8.806;2023-03-05T15:42:01;7.60;;;6.87;;
2049;SDS011;8478;49.208;8.806;2023-03-05T15:44:26;7.27;;;6.70;;
2049;SDS011;8478;49.208;8.806;2023-03-05T15:46:52;6.83;;;6.20;;
2049;SDS011;8478;49.208;8.806;2023-03-05T15:49:20;8.43;;;6.93;;
2049;SDS011;8478;49.208;8.806;2023-03-05T15:51:48;8.00;;;6.77;;
2049;SDS011;8478;49.208;8.806;2023-03-05T15:54:14;8.67;;;7.40;;
2049;SDS011;8478;49.208;8.806;2023-03-05T15:56:40;22.13;;;8.67;;
2049;SDS011;8478;49.208;8.806;2023-03-05T15:59:06;21.50;;;8.33;;
2049;SDS011;8478;49.208;8.806;2023-03-05T16:01:34;10.90;;;8.03;;
2049;SDS011;8478;49.208;8.806;2023-03-05T16:04:01;21.10;;;7.90;;
2049;SDS011;8478;49.208;8.806;2023-03-05T16:06:27;20.37;;;8.87;;
2049;SDS011;8478;49.208;8.806;2023-03-05T16:08:54;20.10;;;8.33;;
2049;SDS011;8478;49.208;8.806;2023-03-05T16:11:30;36.13;;;9.97;;
2049;SDS011;8478;49.208;8.806;2023-03-05T16:14:00;15.30;;;7.87;;
2049;SDS011;8478;49.208;8.806;2023-03-05T16:16:29;25.80;;;8.40;;
2049;SDS011;8478;49.208;8.806;2023-03-05T16:18:56;18.53;;;7.70;;
2049;SDS011;8478;49.208;8.806;2023-03-05T16:21:22;12.93;;;6.97;;
2049;SDS011;8478;49.208;8.806;2023-03-05T16:23:48;9.40;;;6.63;;
2049;SDS011;8478;49.208;8.806;2023-03-05T16:26:14;14.63;;;6.57;;
2049;SDS011;8478;49.208;8.806;2023-03-05T16:28:40;6.67;;;6.03;;
2049;SDS011;8478;49.208;8.806;2023-03-05T16:31:05;12.60;;;6.97;;
2049;SDS011;8478;49.208;8.806;2023-03-05T16:33:31;7.20;;;6.10;;
2049;SDS011;8478;49.208;8.806;2023-03-05T16:38:37;8.57;;;6.53;;
2049;SDS011;8478;49.208;8.806;2023-03-05T16:41:03;6.07;;;5.63;;
2049;SDS011;8478;49.208;8.806;2023-03-05T16:43:29;7.10;;;6.40;;
2049;SDS011;8478;49.208;8.806;2023-03-05T16:45:54;8.33;;;6.00;;
2049;SDS011;8478;49.208;8.806;2023-03-05T16:48:20;8.40;;;6.10;;
2049;SDS011;8478;49.208;8.806;2023-03-05T16:50:46;7.10;;;5.67;;
2049;SDS011;8478;49.208;8.806;2023-03-05T16:53:12;7.00;;;6.40;;
2049;SDS011;8478;49.208;8.806;2023-03-05T16:55:37;6.40;;;5.40;;
2049;SDS011;8478;49.208;8.806;2023-03-05T16:58:03;6.33;;;5.20;;
2049;SDS011;8478;49.208;8.806;2023-03-05T17:00:29;7.60;;;6.10;;
2049;SDS011;8478;49.208;8.806;2023-03-05T17:02:55;6.67;;;5.87;;
2049;SDS011;8478;49.208;8.806;2023-03-05T17:05:21;7.23;;;6.60;;
2049;SDS011;8478;49.208;8.806;2023-03-05T17:07:46;6.70;;;6.10;;
2049;SDS011;8478;49.208;8.806;2023-03-05T17:10:12;6.80;;;6.20;;
2049;SDS011;8478;49.208;8.806;2023-03-05T17:12:38;10.30;;;6.10;;
2049;SDS011;8478;49.208;8.806;2023-03-05T17:15:04;7.20;;;6.60;;
2049;SDS011;8478;49.208;8.806;2023-03-05T17:17:30;7.03;;;6.43;;
2049;SDS011;8478;49.208;8.806;2023-03-05T17:19:56;6.60;;;5.60;;
2049;SDS011;8478;49.208;8.806;2023-03-05T17:22:23;8.30;;;7.50;;
2049;SDS011;8478;49.208;8.806;2023-03-05T17:24:48;6.97;;;6.33;;
2049;SDS011;8478;49.208;8.806;2023-03-05T17:27:14;8.10;;;7.30;;
2049;SDS011;8478;49.208;8.806;2023-03-05T17:29:43;6.80;;;6.20;;
2049;SDS011;8478;49.208;8.806;2023-03-05T17:32:09;8.57;;;6.70;;
2049;SDS011;8478;49.208;8.806;2023-03-05T17:34:35;8.83;;;7.83;;
2049;SDS011;8478;49.208;8.806;2023-03-05T17:37:01;9.17;;;8.27;;
2049;SDS011;8478;49.208;8.806;2023-03-05T17:39:28;9.20;;;7.77;;
2049;SDS011;8478;49.208;8.806;2023-03-05T17:41:54;9.13;;;8.33;;
2049;SDS011;8478;49.208;8.806;2023-03-05T17:44:20;8.90;;;8.20;;
2049;SDS011;8478;49.208;8.806;2023-03-05T17:46:46;9.53;;;8.63;;
2049;SDS011;8478;49.208;8.806;2023-03-05T17:49:11;13.00;;;11.90;;
2049;SDS011;8478;49.208;8.806;2023-03-05T17:51:37;13.40;;;12.30;;
2049;SDS011;8478;49.208;8.806;2023-03-05T17:54:03;11.03;;;10.13;;
2049;SDS011;8478;49.208;8.806;2023-03-05T17:56:29;11.47;;;10.40;;
2049;SDS011;8478;49.208;8.806;2023-03-05T17:58:57;11.87;;;10.77;;
2049;SDS011;8478;49.208;8.806;2023-03-05T18:01:25;10.93;;;10.03;;
2049;SDS011;8478;49.208;8.806;2023-03-05T18:03:55;9.00;;;8.20;;
2049;SDS011;8478;49.208;8.806;2023-03-05T18:06:22;8.87;;;8.17;;
2049;SDS011;8478;49.208;8.806;2023-03-05T18:08:47;9.70;;;8.80;;
2049;SDS011;8478;49.208;8.806;2023-03-05T18:11:14;10.10;;;8.97;;
2049;SDS011;8478;49.208;8.806;2023-03-05T18:13:40;8.90;;;8.20;;
2049;SDS011;8478;49.208;8.806;2023-03-05T18:16:07;8.27;;;7.57;;
2049;SDS011;8478;49.208;8.806;2023-03-05T18:18:33;9.40;;;8.50;;
2049;SDS011;8478;49.208;8.806;2023-03-05T18:20:59;9.13;;;8.30;;
2049;SDS011;8478;49.208;8.806;2023-03-05T18:23:25;9.40;;;8.50;;
2049;SDS011;8478;49.208;8.806;2023-03-05T18:25:51;8.00;;;7.40;;
2049;SDS011;8478;49.208;8.806;2023-03-05T18:28:17;8.53;;;7.83;;
2049;SDS011;8478;49.208;8.806;2023-03-05T18:30:44;8.87;;;8.07;;
2049;SDS011;8478;49.208;8.806;2023-03-05T18:33:13;9.30;;;8.40;;
2049;SDS011;8478;49.208;8.806;2023-03-05T18:35:44;8.87;;;8.17;;
2049;SDS011;8478;49.208;8.806;2023-03-05T18:38:12;8.80;;;8.10;;
2049;SDS011;8478;49.208;8.806;2023-03-05T18:40:37;8.97;;;8.10;;
2049;SDS011;8478;49.208;8.806;2023-03-05T18:43:04;7.80;;;7.10;;
2049;SDS011;8478;49.208;8.806;2023-03-05T18:45:29;7.20;;;6.60;;
2049;SDS011;8478;49.208;8.806;2023-03-05T18:47:56;7.60;;;7.00;;
2049;SDS011;8478;49.208;8.806;2023-03-05T18:50:22;7.77;;;7.00;;
2049;SDS011;8478;49.208;8.806;2023-03-05T18:52:49;8.17;;;7.50;;
2049;SDS011;8478;49.208;8.806;2023-03-05T18:55:16;7.93;;;7.30;;
2049;SDS011;8478;49.208;8.806;2023-03-05T18:57:44;8.00;;;7.30;;
2049;SDS011;8478;49.208;8.806;2023-03-05T19:00:13;7.17;;;6.53;;
2049;SDS011;8478;49.208;8.806;2023-03-05T19:02:40;7.27;;;6.77;;
2049;SDS011;8478;49.208;8.806;2023-03-05T19:05:06;7.77;;;7.17;;
2049;SDS011;8478;49.208;8.806;2023-03-05T19:07:32;8.13;;;7.33;;
2049;SDS011;8478;49.208;8.806;2023-03-05T19:09:59;7.70;;;7.03;;
2049;SDS011;8478;49.208;8.806;2023-03-05T19:12:31;7.40;;;6.80;;
2049;SDS011;8478;49.208;8.806;2023-03-05T19:15:29;7.83;;;7.23;;
2049;SDS011;8478;49.208;8.806;2023-03-05T19:17:56;7.00;;;6.50;;
2049;SDS011;8478;49.208;8.806;2023-03-05T19:20:22;7.37;;;6.67;;
2049;SDS011;8478;49.208;8.806;2023-03-05T19:22:47;8.00;;;7.30;;
2049;SDS011;8478;49.208;8.806;2023-03-05T19:25:15;7.77;;;7.07;;
2049;SDS011;8478;49.208;8.806;2023-03-05T19:27:41;7.60;;;7.00;;
2049;SDS011;8478;49.208;8.806;2023-03-05T19:30:07;8.03;;;7.43;;
2049;SDS011;8478;49.208;8.806;2023-03-05T19:32:34;10.13;;;9.23;;
2049;SDS011;8478;49.208;8.806;2023-03-05T19:35:00;10.87;;;9.87;;
2049;SDS011;8478;49.208;8.806;2023-03-05T19:37:26;17.87;;;13.30;;
2049;SDS011;8478;49.208;8.806;2023-03-05T19:39:52;18.90;;;12.73;;
2049;SDS011;8478;49.208;8.806;2023-03-05T19:42:17;14.73;;;11.83;;
2049;SDS011;8478;49.208;8.806;2023-03-05T19:44:44;15.10;;;11.30;;
2049;SDS011;8478;49.208;8.806;2023-03-05T19:47:09;11.63;;;10.43;;
2049;SDS011;8478;49.208;8.806;2023-03-05T19:49:35;11.07;;;10.07;;
2049;SDS011;8478;49.208;8.806;2023-03-05T19:52:00;12.57;;;10.33;;
2049;SDS011;8478;49.208;8.806;2023-03-05T19:54:28;10.27;;;8.90;;
2049;SDS011;8478;49.208;8.806;2023-03-05T19:56:54;10.70;;;9.70;;
2049;SDS011;8478;49.208;8.806;2023-03-05T19:59:20;9.17;;;8.33;;
2049;SDS011;8478;49.208;8.806;2023-03-05T20:01:48;13.40;;;9.90;;
2049;SDS011;8478;49.208;8.806;2023-03-05T20:04:15;10.27;;;8.80;;
2049;SDS011;8478;49.208;8.806;2023-03-05T20:06:42;11.13;;;8.60;;
2049;SDS011;8478;49.208;8.806;2023-03-05T20:09:08;11.00;;;9.57;;
2049;SDS011;8478;49.208;8.806;2023-03-05T20:11:34;9.23;;;8.20;;
2049;SDS011;8478;49.208;8.806;2023-03-05T20:14:00;10.10;;;9.10;;
2049;SDS011;8478;49.208;8.806;2023-03-05T20:16:27;9.67;;;8.67;;
2049;SDS011;8478;49.208;8.806;2023-03-05T20:18:54;12.47;;;11.20;;
2049;SDS011;8478;49.208;8.806;2023-03-05T20:21:23;15.53;;;12.70;;
2049;SDS011;8478;49.208;8.806;2023-03-05T20:23:50;13.90;;;11.93;;
2049;SDS011;8478;49.208;8.806;2023-03-05T20:26:18;14.27;;;12.80;;
2049;SDS011;8478;49.208;8.806;2023-03-05T20:28:44;15.53;;;13.13;;
2049;SDS011;8478;49.208;8.806;2023-03-05T20:31:10;13.50;;;12.10;;
2049;SDS011;8478;49.208;8.806;2023-03-05T20:33:36;15.20;;;12.63;;
2049;SDS011;8478;49.208;8.806;2023-03-05T20:36:02;12.53;;;11.40;;
2049;SDS011;8478;49.208;8.806;2023-03-05T20:38:29;12.23;;;10.60;;
2049;SDS011;8478;49.208;8.806;2023-03-05T20:41:00;31.23;;;13.90;;
2049;SDS011;8478;49.208;8.806;2023-03-05T20:43:40;15.87;;;12.13;;
2049;SDS011;8478;49.208;8.806;2023-03-05T20:48:42;15.40;;;11.27;;
2049;SDS011;8478;49.208;8.806;2023-03-05T20:51:12;17.23;;;11.43;;
2049;SDS011;8478;49.208;8.806;2023-03-05T20:53:40;15.37;;;11.50;;
2049;SDS011;8478;49.208;8.806;2023-03-05T20:56:07;12.93;;;10.40;;
2049;SDS011;8478;49.208;8.806;2023-03-05T20:58:32;14.37;;;11.33;;
2049;SDS011;8478;49.208;8.806;2023-03-05T21:00:58;16.77;;;10.93;;
2049;SDS011;8478;49.208;8.806;2023-03-05T21:03:24;10.40;;;9.40;;
2049;SDS011;8478;49.208;8.806;2023-03-05T21:05:49;13.50;;;12.10;;
2049;SDS011;8478;49.208;8.806;2023-03-05T21:08:15;13.77;;;10.70;;
2049;SDS011;8478;49.208;8.806;2023-03-05T21:10:41;11.83;;;10.87;;
2049;SDS011;8478;49.208;8.806;2023-03-05T21:13:06;12.47;;;10.83;;
2049;SDS011;8478;49.208;8.806;2023-03-05T21:15:32;11.57;;;10.57;;
2049;SDS011;8478;49.208;8.806;2023-03-05T21:17:58;12.87;;;9.50;;
2049;SDS011;8478;49.208;8.806;2023-03-05T21:20:26;12.70;;;9.77;;
2049;SDS011;8478;49.208;8.806;2023-03-05T21:22:53;12.00;;;10.80;;
2049;SDS011;8478;49.208;8.806;2023-03-05T21:25:20;12.07;;;9.77;;
2049;SDS011;8478;49.208;8.806;2023-03-05T21:27:49;11.40;;;10.30;;
2049;SDS011;8478;49.208;8.806;2023-03-05T21:30:21;10.40;;;9.40;;
2049;SDS011;8478;49.208;8.806;2023-03-05T21:32:53;11.10;;;10.00;;
2049;SDS011;8478;49.208;8.806;2023-03-05T21:35:20;13.27;;;11.27;;
2049;SDS011;8478;49.208;8.806;2023-03-05T21:37:46;11.60;;;10.43;;
2049;SDS011;8478;49.208;8.806;2023-03-05T21:40:14;11.50;;;10.47;;
2049;SDS011;8478;49.208;8.806;2023-03-05T21:42:42;13.60;;;11.73;;
2049;SDS011;8478;49.208;8.806;2023-03-05T21:45:10;13.47;;;12.23;;
2049;SDS011;8478;49.208;8.806;2023-03-05T21:47:37;13.17;;;12.07;;
2049;SDS011;8478;49.208;8.806;2023-03-05T21:50:03;14.57;;;12.50;;
2049;SDS011;8478;49.208;8.806;2023-03-05T21:52:30;18.37;;;15.50;;
2049;SDS011;8478;49.208;8.806;2023-03-05T21:54:56;18.60;;;16.70;;
2049;SDS011;8478;49.208;8.806;2023-03-05T21:57:22;18.77;;;16.97;;
2049;SDS011;8478;49.208;8.806;2023-03-05T21:59:50;23.47;;;21.07;;
2049;SDS011;8478;49.208;8.806;2023-03-05T22:02:16;22.17;;;20.10;;
2049;SDS011;8478;49.208;8.806;2023-03-05T22:04:43;25.50;;;18.80;;
2049;SDS011;8478;49.208;8.806;2023-03-05T22:07:09;21.20;;;19.17;;
2049;SDS011;8478;49.208;8.806;2023-03-05T22:09:35;22.80;;;20.40;;
2049;SDS011;8478;49.208;8.806;2023-03-05T22:12:01;24.67;;;22.20;;
2049;SDS011;8478;49.208;8.806;2023-03-05T22:15:05;23.10;;;20.90;;
2049;SDS011;8478;49.208;8.806;2023-03-05T22:17:31;23.10;;;20.93;;
2049;SDS011;8478;49.208;8.806;2023-03-05T22:19:57;23.73;;;21.07;;
2049;SDS011;8478;49.208;8.806;2023-03-05T22:22:23;24.57;;;22.13;;
2049;SDS011;8478;49.208;8.806;2023-03-05T22:24:48;23.57;;;21.33;;
2049;SDS011;8478;49.208;8.806;2023-03-05T22:27:14;24.57;;;21.93;;
2049;SDS011;8478;49.208;8.806;2023-03-05T22:29:40;23.77;;;21.33;;
2049;SDS011;8478;49.208;8.806;2023-03-05T22:32:05;24.63;;;22.20;;
2049;SDS011;8478;49.208;8.806;2023-03-05T22:34:31;22.30;;;20.00;;
2049;SDS011;8478;49.208;8.806;2023-03-05T22:36:56;23.07;;;20.63;;
2049;SDS011;8478;49.208;8.806;2023-03-05T22:39:22;23.03;;;20.80;;
2049;SDS011;8478;49.208;8.806;2023-03-05T22:41:48;26.10;;;23.40;;
2049;SDS011;8478;49.208;8.806;2023-03-05T22:44:13;23.47;;;21.33;;
2049;SDS011;8478;49.208;8.806;2023-03-05T22:46:40;27.60;;;22.17;;
2049;SDS011;8478;49.208;8.806;2023-03-05T22:49:08;23.00;;;20.77;;
2049;SDS011;8478;49.208;8.806;2023-03-05T22:51:34;26.47;;;23.67;;
2049;SDS011;8478;49.208;8.806;2023-03-05T22:54:00;23.87;;;21.47;;
2049;SDS011;8478;49.208;8.806;2023-03-05T22:56:25;24.53;;;21.83;;
2049;SDS011;8478;49.208;8.806;2023-03-05T22:58:51;23.87;;;21.47;;
2049;SDS011;8478;49.208;8.806;2023-03-05T23:01:21;24.90;;;20.80;;
2049;SDS011;8478;49.208;8.806;2023-03-05T23:04:04;22.43;;;20.33;;
2049;SDS011;8478;49.208;8.806;2023-03-05T23:06:53;21.13;;;19.33;;
2049;SDS011;8478;49.208;8.806;2023-03-05T23:09:21;20.77;;;18.53;;
2049;SDS011;8478;49.208;8.806;2023-03-05T23:11:47;21.43;;;19.23;;
2049;SDS011;8478;49.208;8.806;2023-03-05T23:14:13;21.57;;;19.40;;
2049;SDS011;8478;49.208;8.806;2023-03-05T23:16:39;19.93;;;17.93;;
2049;SDS011;8478;49.208;8.806;2023-03-05T23:19:04;20.80;;;18.90;;
2049;SDS011;8478;49.208;8.806;2023-03-05T23:21:30;22.33;;;19.93;;
2049;SDS011;8478;49.208;8.806;2023-03-05T23:23:56;21.00;;;18.80;;
2049;SDS011;8478;49.208;8.806;2023-03-05T23:26:22;22.23;;;19.93;;
2049;SDS011;8478;49.208;8.806;2023-03-05T23:28:48;22.53;;;20.13;;
2049;SDS011;8478;49.208;8.806;2023-03-05T23:31:16;20.87;;;18.87;;
2049;SDS011;8478;49.208;8.806;2023-03-05T23:33:42;21.43;;;19.33;;
2049;SDS011;8478;49.208;8.806;2023-03-05T23:36:08;20.70;;;18.80;;
2049;SDS011;8478;49.208;8.806;2023-03-05T23:38:34;21.17;;;19.13;;
2049;SDS011;8478;49.208;8.806;2023-03-05T23:41:00;23.33;;;20.93;;
2049;SDS011;8478;49.208;8.806;2023-03-05T23:43:28;26.23;;;23.47;;
2049;SDS011;8478;49.208;8.806;2023-03-05T23:45:54;24.70;;;22.00;;
2049;SDS011;8478;49.208;8.806;2023-03-05T23:48:24;22.80;;;20.60;;
2049;SDS011;8478;49.208;8.806;2023-03-05T23:50:50;22.03;;;19.83;;
2049;SDS011;8478;49.208;8.806;2023-03-05T23:53:17;21.13;;;18.80;;
2049;SDS011;8478;49.208;8.806;2023-03-05T23:55:48;22.47;;;20.23;;
2049;SDS011;8478;49.208;8.806;2023-03-05T23:58:15;22.87;;;19.97;;
